sensor_id;sensor_type;location;lat;lon;timestamp;pressure;altitude;pressure_sealevel;temperature;humidity
61674;BME280;47573;43.832;5.974;2023-04-15T00:03:11;94259.28;;;24.52;60.11
61674;BME280;47573;43.832;5.974;2023-04-15T00:09:52;94259.88;;;24.49;60.13
61674;BME280;47573;43.832;5.974;2023-04-15T00:16:34;94262.59;;;24.44;60.41
61674;BME280;47573;43.832;5.974;2023-04-15T00:23:15;94249.00;;;24.39;60.13
61674;BME280;47573;43.832;5.974;2023-04-15T00:29:55;94251.72;;;24.34;60.42
61674;BME280;47573;43.832;5.974;2023-04-15T00:36:37;94253.06;;;24.31;59.90
61674;BME280;47573;43.832;5.974;2023-04-15T00:43:18;94259.91;;;24.29;60.25
61674;BME280;47573;43.832;5.974;2023-04-15T00:49:58;94255.31;;;24.24;60.43
61674;BME280;47573;43.832;5.974;2023-04-15T00:56:40;94261.00;;;24.23;60.23
61674;BME280;47573;43.832;5.974;2023-04-15T01:03:21;94259.13;;;24.18;60.65
61674;BME280;47573;43.832;5.974;2023-04-15T01:10:02;94244.34;;;24.29;59.80
61674;BME280;47573;43.832;5.974;2023-04-15T01:16:44;94240.25;;;24.27;59.69
61674;BME280;47573;43.832;5.974;2023-04-15T01:23:26;94231.03;;;24.18;59.99
61674;BME280;47573;43.832;5.974;2023-04-15T01:30:09;94220.13;;;24.13;59.82
61674;BME280;47573;43.832;5.974;2023-04-15T01:36:50;94236.50;;;24.08;59.83
61674;BME280;47573;43.832;5.974;2023-04-15T01:43:30;94235.94;;;24.01;60.39
61674;BME280;47573;43.832;5.974;2023-04-15T01:50:12;94237.28;;;23.98;60.51
61674;BME280;47573;43.832;5.974;2023-04-15T01:56:53;94244.13;;;23.95;60.09
61674;BME280;47573;43.832;5.974;2023-04-15T02:03:33;94239.75;;;23.89;60.41
61674;BME280;47573;43.832;5.974;2023-04-15T02:10:15;94241.16;;;23.87;60.40
61674;BME280;47573;43.832;5.974;2023-04-15T02:16:56;94238.41;;;23.82;60.37
61674;BME280;47573;43.832;5.974;2023-04-15T02:23:36;94241.13;;;23.77;60.35
61674;BME280;47573;43.832;5.974;2023-04-15T02:30:18;94246.31;;;23.73;60.36
61674;BME280;47573;43.832;5.974;2023-04-15T02:36:59;94254.53;;;23.68;59.94
61674;BME280;47573;43.832;5.974;2023-04-15T02:43:40;94248.78;;;23.65;60.22
61674;BME280;47573;43.832;5.974;2023-04-15T02:50:21;94242.50;;;23.64;59.79
61674;BME280;47573;43.832;5.974;2023-04-15T02:57:02;94245.25;;;23.59;60.24
61674;BME280;47573;43.832;5.974;2023-04-15T03:03:42;94247.41;;;23.57;60.15
61674;BME280;47573;43.832;5.974;2023-04-15T03:10:24;94247.41;;;23.52;60.06
61674;BME280;47573;43.832;5.974;2023-04-15T03:17:05;94246.88;;;23.50;59.86
61674;BME280;47573;43.832;5.974;2023-04-15T03:23:45;94246.88;;;23.45;59.86
61674;BME280;47573;43.832;5.974;2023-04-15T03:30:27;94253.97;;;23.41;59.96
61674;BME280;47573;43.832;5.974;2023-04-15T03:37:08;94234.88;;;23.41;59.73
61674;BME280;47573;43.832;5.974;2023-04-15T03:43:49;94238.16;;;23.38;59.73
61674;BME280;47573;43.832;5.974;2023-04-15T03:50:30;94241.97;;;23.37;59.72
61674;BME280;47573;43.832;5.974;2023-04-15T03:57:11;94242.50;;;23.34;59.44
61674;BME280;47573;43.832;5.974;2023-04-15T04:03:52;94251.75;;;23.33;59.75
61674;BME280;47573;43.832;5.974;2023-04-15T04:10:33;94259.91;;;23.28;59.66
61674;BME280;47573;43.832;5.974;2023-04-15T04:17:14;94258.81;;;23.24;59.78
61674;BME280;47573;43.832;5.974;2023-04-15T04:23:55;94263.97;;;23.21;59.69
61674;BME280;47573;43.832;5.974;2023-04-15T04:30:36;94268.06;;;23.18;59.76
61674;BME280;47573;43.832;5.974;2023-04-15T04:37:17;94263.41;;;23.13;59.92
61674;BME280;47573;43.832;5.974;2023-04-15T04:43:57;94257.69;;;23.10;59.67
61674;BME280;47573;43.832;5.974;2023-04-15T04:50:39;94262.84;;;23.06;59.93
61674;BME280;47573;43.832;5.974;2023-04-15T04:57:20;94265.00;;;23.04;59.69
61674;BME280;47573;43.832;5.974;2023-04-15T05:04:00;94276.69;;;23.00;59.75
61674;BME280;47573;43.832;5.974;2023-04-15T05:10:42;94287.88;;;22.98;59.72
61674;BME280;47573;43.832;5.974;2023-04-15T05:17:23;94287.59;;;22.95;59.85
61674;BME280;47573;43.832;5.974;2023-04-15T05:24:04;94293.03;;;22.95;59.68
61674;BME280;47573;43.832;5.974;2023-04-15T05:30:46;94302.81;;;22.91;59.91
61674;BME280;47573;43.832;5.974;2023-04-15T05:37:26;94303.88;;;22.90;59.55
61674;BME280;47573;43.832;5.974;2023-04-15T05:44:07;94308.25;;;22.91;59.35
61674;BME280;47573;43.832;5.974;2023-04-15T05:50:49;94311.50;;;22.88;59.59
61674;BME280;47573;43.832;5.974;2023-04-15T05:57:29;94303.88;;;22.90;59.41
61674;BME280;47573;43.832;5.974;2023-04-15T06:04:10;94302.28;;;22.89;59.34
61674;BME280;47573;43.832;5.974;2023-04-15T06:10:52;94304.97;;;22.84;59.46
61674;BME280;47573;43.832;5.974;2023-04-15T06:17:32;94308.25;;;22.91;59.40
61674;BME280;47573;43.832;5.974;2023-04-15T06:24:13;94304.41;;;22.82;59.53
61674;BME280;47573;43.832;5.974;2023-04-15T06:30:55;94305.00;;;22.89;59.45
61674;BME280;47573;43.832;5.974;2023-04-15T06:37:35;94300.03;;;22.76;56.06
61674;BME280;47573;43.832;5.974;2023-04-15T06:44:16;94299.31;;;22.49;54.22
61674;BME280;47573;43.832;5.974;2023-04-15T06:50:57;94289.50;;;22.42;54.28
61674;BME280;47573;43.832;5.974;2023-04-15T06:57:38;94282.13;;;22.38;54.16
61674;BME280;47573;43.832;5.974;2023-04-15T07:04:19;94301.44;;;22.36;54.17
61674;BME280;47573;43.832;5.974;2023-04-15T07:11:00;94287.28;;;22.34;53.08
61674;BME280;47573;43.832;5.974;2023-04-15T07:17:41;94292.44;;;22.31;53.17
61674;BME280;47573;43.832;5.974;2023-04-15T07:24:22;94300.34;;;22.37;52.79
61674;BME280;47573;43.832;5.974;2023-04-15T07:31:04;94299.56;;;22.42;52.22
61674;BME280;47573;43.832;5.974;2023-04-15T07:37:45;94297.16;;;22.46;52.48
61674;BME280;47573;43.832;5.974;2023-04-15T07:44:25;94289.38;;;22.69;54.99
61674;BME280;47573;43.832;5.974;2023-04-15T07:51:07;94293.53;;;22.82;55.02
61674;BME280;47573;43.832;5.974;2023-04-15T07:57:48;94285.63;;;22.85;55.46
61674;BME280;47573;43.832;5.974;2023-04-15T08:04:29;94280.50;;;22.89;55.36
61674;BME280;47573;43.832;5.974;2023-04-15T08:11:11;94288.69;;;22.99;55.39
61674;BME280;47573;43.832;5.974;2023-04-15T08:17:52;94273.44;;;22.93;55.43
61674;BME280;47573;43.832;5.974;2023-04-15T08:24:33;94277.25;;;23.02;55.35
61674;BME280;47573;43.832;5.974;2023-04-15T08:31:16;94277.25;;;23.02;55.63
61674;BME280;47573;43.832;5.974;2023-04-15T08:37:57;94285.44;;;23.07;55.14
61674;BME280;47573;43.832;5.974;2023-04-15T08:44:38;94292.25;;;23.14;55.27
61674;BME280;47573;43.832;5.974;2023-04-15T08:51:21;94289.25;;;23.11;55.39
61674;BME280;47573;43.832;5.974;2023-04-15T08:58:01;94293.63;;;23.12;55.13
61674;BME280;47573;43.832;5.974;2023-04-15T09:04:42;94286.00;;;23.19;54.85
61674;BME280;47573;43.832;5.974;2023-04-15T09:11:24;94283.84;;;23.21;55.50
61674;BME280;47573;43.832;5.974;2023-04-15T09:18:05;94288.25;;;23.32;55.11
61674;BME280;47573;43.832;5.974;2023-04-15T09:24:46;94284.44;;;23.38;55.48
61674;BME280;47573;43.832;5.974;2023-04-15T09:31:29;94271.41;;;23.45;55.46
61674;BME280;47573;43.832;5.974;2023-04-15T09:38:10;94258.84;;;23.44;55.75
61674;BME280;47573;43.832;5.974;2023-04-15T09:44:51;94267.03;;;23.49;55.79
61674;BME280;47573;43.832;5.974;2023-04-15T09:51:34;94251.22;;;23.61;55.82
61674;BME280;47573;43.832;5.974;2023-04-15T09:58:17;94259.16;;;23.68;55.66
61674;BME280;47573;43.832;5.974;2023-04-15T10:04:58;94262.41;;;23.70;56.27
61674;BME280;47573;43.832;5.974;2023-04-15T10:11:41;94244.69;;;23.82;55.59
61674;BME280;47573;43.832;5.974;2023-04-15T10:18:24;94249.88;;;23.89;56.06
61674;BME280;47573;43.832;5.974;2023-04-15T10:25:04;94255.03;;;24.01;56.28
61674;BME280;47573;43.832;5.974;2023-04-15T10:31:47;94248.78;;;24.05;56.51
61674;BME280;47573;43.832;5.974;2023-04-15T10:38:31;94248.50;;;24.12;56.51
61674;BME280;47573;43.832;5.974;2023-04-15T10:45:15;94264.84;;;24.22;56.23
61674;BME280;47573;43.832;5.974;2023-04-15T10:51:58;94237.53;;;24.27;56.40
61674;BME280;47573;43.832;5.974;2023-04-15T10:58:41;94244.34;;;24.29;57.00
61674;BME280;47573;43.832;5.974;2023-04-15T11:05:47;94220.88;;;24.38;56.34
61674;BME280;47573;43.832;5.974;2023-04-15T11:12:33;94205.59;;;24.42;56.86
61674;BME280;47573;43.832;5.974;2023-04-15T11:19:13;94194.38;;;24.49;56.45
61674;BME280;47573;43.832;5.974;2023-04-15T11:25:54;94186.69;;;24.61;56.50
61674;BME280;47573;43.832;5.974;2023-04-15T11:32:40;94178.47;;;24.66;56.68
61674;BME280;47573;43.832;5.974;2023-04-15T11:39:21;94163.16;;;24.70;56.51
61674;BME280;47573;43.832;5.974;2023-04-15T11:46:02;94175.13;;;24.79;56.37
61674;BME280;47573;43.832;5.974;2023-04-15T11:52:52;94179.47;;;24.85;55.87
61674;BME280;47573;43.832;5.974;2023-04-15T11:59:41;94198.03;;;24.88;56.75
61674;BME280;47573;43.832;5.974;2023-04-15T12:06:22;94199.09;;;24.92;56.07
61674;BME280;47573;43.832;5.974;2023-04-15T12:13:06;94190.63;;;24.94;55.68
61674;BME280;47573;43.832;5.974;2023-04-15T12:19:55;94172.88;;;24.91;55.39
61674;BME280;47573;43.832;5.974;2023-04-15T12:26:40;94162.53;;;24.88;55.13
61674;BME280;47573;43.832;5.974;2023-04-15T12:33:31;94158.97;;;24.88;55.08
61674;BME280;47573;43.832;5.974;2023-04-15T12:40:12;94142.59;;;24.88;54.93
61674;BME280;47573;43.832;5.974;2023-04-15T12:46:53;94157.38;;;24.82;55.13
61674;BME280;47573;43.832;5.974;2023-04-15T12:53:35;94172.09;;;24.86;54.80
61674;BME280;47573;43.832;5.974;2023-04-15T13:00:15;94164.19;;;24.84;54.83
61674;BME280;47573;43.832;5.974;2023-04-15T13:06:56;94164.19;;;24.84;54.92
61674;BME280;47573;43.832;5.974;2023-04-15T13:13:38;94156.56;;;24.81;55.63
61674;BME280;47573;43.832;5.974;2023-04-15T13:20:18;94158.66;;;24.94;55.95
61674;BME280;47573;43.832;5.974;2023-04-15T13:26:59;94155.91;;;24.99;55.68
61674;BME280;47573;43.832;5.974;2023-04-15T13:33:40;94166.84;;;24.99;55.98
61674;BME280;47573;43.832;5.974;2023-04-15T13:40:21;94199.28;;;25.06;56.29
61674;BME280;47573;43.832;5.974;2023-04-15T13:47:02;94186.50;;;25.01;56.63
61674;BME280;47573;43.832;5.974;2023-04-15T13:53:44;94194.09;;;25.09;56.64
61674;BME280;47573;43.832;5.974;2023-04-15T14:00:24;94207.97;;;25.13;57.27
61674;BME280;47573;43.832;5.974;2023-04-15T14:07:05;94190.75;;;25.17;57.25
61674;BME280;47573;43.832;5.974;2023-04-15T14:13:46;94187.50;;;25.15;56.75
61674;BME280;47573;43.832;5.974;2023-04-15T14:20:27;94195.63;;;25.20;56.96
61674;BME280;47573;43.832;5.974;2023-04-15T14:27:07;94189.63;;;25.23;57.60
61674;BME280;47573;43.832;5.974;2023-04-15T14:33:49;94198.34;;;25.25;57.61
61674;BME280;47573;43.832;5.974;2023-04-15T14:40:30;94205.69;;;25.30;57.86
61674;BME280;47573;43.832;5.974;2023-04-15T14:47:10;94213.03;;;25.34;57.79
61674;BME280;47573;43.832;5.974;2023-04-15T14:53:52;94221.50;;;25.33;57.48
61674;BME280;47573;43.832;5.974;2023-04-15T15:00:34;94225.91;;;25.29;58.14
61674;BME280;47573;43.832;5.974;2023-04-15T15:07:15;94229.44;;;25.34;57.79
61674;BME280;47573;43.832;5.974;2023-04-15T15:13:57;94242.53;;;25.42;57.74
61674;BME280;47573;43.832;5.974;2023-04-15T15:20:37;94247.44;;;25.35;58.34
61674;BME280;47573;43.832;5.974;2023-04-15T15:27:18;94243.63;;;25.36;58.77
61674;BME280;47573;43.832;5.974;2023-04-15T15:33:59;94264.91;;;25.39;58.51
61674;BME280;47573;43.832;5.974;2023-04-15T15:40:40;94272.59;;;25.42;57.98
61674;BME280;47573;43.832;5.974;2023-04-15T15:47:21;94283.47;;;25.47;58.28
61674;BME280;47573;43.832;5.974;2023-04-15T15:54:03;94291.66;;;25.47;58.75
61674;BME280;47573;43.832;5.974;2023-04-15T16:00:43;94306.38;;;25.51;58.90
61674;BME280;47573;43.832;5.974;2023-04-15T16:07:24;94309.13;;;25.51;59.03
61674;BME280;47573;43.832;5.974;2023-04-15T16:14:06;94309.41;;;25.50;59.22
61674;BME280;47573;43.832;5.974;2023-04-15T16:20:46;94316.78;;;25.55;59.08
61674;BME280;47573;43.832;5.974;2023-04-15T16:27:27;94318.66;;;25.59;59.32
61674;BME280;47573;43.832;5.974;2023-04-15T16:34:09;94327.63;;;25.65;58.71
61674;BME280;47573;43.832;5.974;2023-04-15T16:40:49;94329.31;;;25.56;59.47
61674;BME280;47573;43.832;5.974;2023-04-15T16:47:30;94329.31;;;25.56;59.82
61674;BME280;47573;43.832;5.974;2023-04-15T16:54:12;94335.84;;;25.60;59.90
61674;BME280;47573;43.832;5.974;2023-04-15T17:00:52;94330.94;;;25.62;59.72
61674;BME280;47573;43.832;5.974;2023-04-15T17:07:33;94352.25;;;25.60;60.13
61674;BME280;47573;43.832;5.974;2023-04-15T17:14:15;94362.66;;;25.63;59.81
61674;BME280;47573;43.832;5.974;2023-04-15T17:20:55;94364.84;;;25.61;59.99
61674;BME280;47573;43.832;5.974;2023-04-15T17:27:36;94384.50;;;25.63;58.26
61674;BME280;47573;43.832;5.974;2023-04-15T17:34:17;94400.91;;;25.63;59.37
61674;BME280;47573;43.832;5.974;2023-04-15T17:40:58;94404.75;;;25.62;57.03
61674;BME280;47573;43.832;5.974;2023-04-15T17:47:39;94418.72;;;25.55;59.60
61674;BME280;47573;43.832;5.974;2023-04-15T17:54:20;94419.81;;;25.54;59.27
61674;BME280;47573;43.832;5.974;2023-04-15T18:01:01;94429.66;;;25.55;59.60
61674;BME280;47573;43.832;5.974;2023-04-15T18:07:42;94438.94;;;25.59;56.75
61674;BME280;47573;43.832;5.974;2023-04-15T18:14:23;94446.31;;;25.53;59.38
61674;BME280;47573;43.832;5.974;2023-04-15T18:21:04;94463.25;;;25.61;59.39
61674;BME280;47573;43.832;5.974;2023-04-15T18:27:45;94472.03;;;25.52;59.85
61674;BME280;47573;43.832;5.974;2023-04-15T18:34:27;94475.31;;;25.55;59.92
61674;BME280;47573;43.832;5.974;2023-04-15T18:41:07;94482.41;;;25.56;60.41
61674;BME280;47573;43.832;5.974;2023-04-15T18:47:48;94495.22;;;25.60;60.32
61674;BME280;47573;43.832;5.974;2023-04-15T18:54:31;94519.53;;;25.72;60.13
61674;BME280;47573;43.832;5.974;2023-04-15T19:01:11;94523.34;;;25.76;60.14
61674;BME280;47573;43.832;5.974;2023-04-15T19:07:52;94529.06;;;25.74;60.42
61674;BME280;47573;43.832;5.974;2023-04-15T19:14:34;94538.66;;;25.77;60.13
61674;BME280;47573;43.832;5.974;2023-04-15T19:21:14;94542.50;;;25.76;60.13
61674;BME280;47573;43.832;5.974;2023-04-15T19:27:55;94548.50;;;25.73;60.20
61674;BME280;47573;43.832;5.974;2023-04-15T19:34:37;94557.25;;;25.75;60.00
61674;BME280;47573;43.832;5.974;2023-04-15T19:41:17;94569.00;;;25.80;60.49
61674;BME280;47573;43.832;5.974;2023-04-15T19:47:58;94573.94;;;25.78;60.54
61674;BME280;47573;43.832;5.974;2023-04-15T19:54:40;94581.03;;;25.84;60.07
61674;BME280;47573;43.832;5.974;2023-04-15T20:01:21;94582.94;;;25.84;61.01
61674;BME280;47573;43.832;5.974;2023-04-15T20:08:02;94590.03;;;25.85;61.14
61674;BME280;47573;43.832;5.974;2023-04-15T20:14:44;94579.63;;;25.87;61.45
61674;BME280;47573;43.832;5.974;2023-04-15T20:21:24;94569.53;;;25.82;61.34
61674;BME280;47573;43.832;5.974;2023-04-15T20:28:05;94584.56;;;25.85;61.43
61674;BME280;47573;43.832;5.974;2023-04-15T20:34:46;94597.97;;;25.86;61.54
61674;BME280;47573;43.832;5.974;2023-04-15T20:41:27;94622.84;;;25.85;61.70
61674;BME280;47573;43.832;5.974;2023-04-15T20:48:07;94642.00;;;25.90;61.69
61674;BME280;47573;43.832;5.974;2023-04-15T20:54:49;94666.06;;;25.88;61.47
61674;BME280;47573;43.832;5.974;2023-04-15T21:01:30;94675.34;;;25.87;61.62
61674;BME280;47573;43.832;5.974;2023-04-15T21:08:10;94687.38;;;25.91;61.39
61674;BME280;47573;43.832;5.974;2023-04-15T21:14:52;94695.03;;;25.89;61.31
61674;BME280;47573;43.832;5.974;2023-04-15T21:21:32;94702.69;;;25.87;61.51
61674;BME280;47573;43.832;5.974;2023-04-15T21:28:13;94709.56;;;25.84;60.79
61674;BME280;47573;43.832;5.974;2023-04-15T21:34:55;94697.78;;;25.84;60.98
61674;BME280;47573;43.832;5.974;2023-04-15T21:41:35;94708.75;;;25.84;60.99
61674;BME280;47573;43.832;5.974;2023-04-15T21:48:16;94719.69;;;25.84;61.30
61674;BME280;47573;43.832;5.974;2023-04-15T21:54:58;94719.69;;;25.84;61.10
61674;BME280;47573;43.832;5.974;2023-04-15T22:01:40;94729.53;;;25.80;61.37
61674;BME280;47573;43.832;5.974;2023-04-15T22:08:20;94727.88;;;25.79;61.36
61674;BME280;47573;43.832;5.974;2023-04-15T22:15:02;94722.41;;;25.79;61.37
61674;BME280;47573;43.832;5.974;2023-04-15T22:21:43;94738.81;;;25.79;61.36
61674;BME280;47573;43.832;5.974;2023-04-15T22:28:23;94746.47;;;25.77;60.80
61674;BME280;47573;43.832;5.974;2023-04-15T22:35:06;94745.94;;;25.75;60.68
61674;BME280;47573;43.832;5.974;2023-04-15T22:41:47;94747.84;;;25.54;60.16
61674;BME280;47573;43.832;5.974;2023-04-15T22:48:27;94752.44;;;25.33;60.89
61674;BME280;47573;43.832;5.974;2023-04-15T22:55:09;94766.06;;;25.18;60.72
61674;BME280;47573;43.832;5.974;2023-04-15T23:01:49;94759.50;;;25.14;61.11
61674;BME280;47573;43.832;5.974;2023-04-15T23:08:30;94758.94;;;25.07;61.02
61674;BME280;47573;43.832;5.974;2023-04-15T23:15:12;94758.94;;;24.97;61.53
61674;BME280;47573;43.832;5.974;2023-04-15T23:21:52;94761.09;;;24.95;61.13
61674;BME280;47573;43.832;5.974;2023-04-15T23:28:33;94770.06;;;24.81;61.13
61674;BME280;47573;43.832;5.974;2023-04-15T23:35:15;94766.47;;;24.75;61.52
61674;BME280;47573;43.832;5.974;2023-04-15T23:41:55;94765.91;;;24.73;61.05
61674;BME280;47573;43.832;5.974;2023-04-15T23:48:36;94767.53;;;24.69;61.32
61674;BME280;47573;43.832;5.974;2023-04-15T23:55:18;94774.06;;;24.63;60.55
